Time;durP1;ratioP1;P1;durP2;ratioP2;P2;SDS_P1;SDS_P2;PMS_P1;PMS_P2;Temp;Humidity;BMP_temperature;BMP_pressure;BME280_temperature;BME280_humidity;BME280_pressure;Samples;Min_cycle;Max_cycle;Signal;HPM_P1;HPM_P2
2021/09/04 00:01:49;;;;;;;;;;;;;;;16.33;56.83;100022.25;4398837;32;34639;-93
2021/09/04 00:04:41;;;;;;;;;;;;;;;16.35;56.64;100022.09;4372646;32;34944;-95
2021/09/04 00:07:27;;;;;;;;;;;;;;;16.30;56.50;100030.66;4390294;32;34027;-94
2021/09/04 00:10:12;;;;;;;;;;;;;;;16.24;56.78;100028.66;4422594;32;33131;-95
2021/09/04 00:12:58;;;;;;;;;;;;;;;16.21;56.81;100025.50;4439272;32;35193;-96
2021/09/04 00:15:44;;;;;;;;;;;;;;;16.17;57.25;100027.72;4400702;32;34501;-93
2021/09/04 00:18:33;;;;;;;;;;;;;;;16.14;57.43;100016.50;4379434;32;32310;-93
2021/09/04 00:21:16;;;;;;;;;;;;;;;16.09;57.34;100018.84;4423612;32;33490;-94
2021/09/04 00:24:02;;;;;;;;;;;;;;;16.09;57.58;100030.44;4430648;32;34146;-94
2021/09/04 00:26:45;;;;;;;;;;;;;;;16.09;57.46;100017.00;4415905;32;33853;-94
2021/09/04 00:29:28;;;;;;;;;;;;;;;15.97;57.48;100025.59;4423851;32;32936;-95
2021/09/04 00:32:11;;;;;;;;;;;;;;;16.02;57.30;100018.72;4458650;32;34143;-94
2021/09/04 00:34:55;;;;;;;;;;;;;;;16.01;57.67;100021.56;4425296;32;34586;-94
2021/09/04 00:37:38;;;;;;;;;;;;;;;15.99;57.45;100018.22;4425947;32;33673;-94
2021/09/04 00:40:20;;;;;;;;;;;;;;;15.98;57.61;100025.41;4417156;32;32375;-93
2021/09/04 00:43:16;;;;;;;;;;;;;;;15.94;57.89;100028.62;4442837;32;19999;-96
2021/09/04 00:46:05;;;;;;;;;;;;;;;15.86;58.14;100018.75;4426648;32;34127;-93
2021/09/04 00:48:48;;;;;;;;;;;;;;;15.72;58.85;100011.44;4417201;32;33832;-93
2021/09/04 00:51:30;;;;;;;;;;;;;;;15.84;58.42;100011.88;4393397;32;31950;-93
2021/09/04 00:54:12;;;;;;;;;;;;;;;15.92;58.04;100003.81;4389233;32;33484;-95
2021/09/04 00:56:54;;;;;;;;;;;;;;;15.87;57.96;100006.19;4435009;32;35541;-95
2021/09/04 00:59:36;;;;;;;;;;;;;;;15.77;58.51;100001.00;4413218;32;34540;-95
2021/09/04 01:02:20;;;;;;;;;;;;;;;15.88;58.42;100011.34;4417261;32;32313;-93
2021/09/04 01:05:05;;;;;;;;;;;;;;;15.89;58.43;100002.31;4405192;32;33380;-94
2021/09/04 01:07:51;;;;;;;;;;;;;;;15.92;58.33;100004.66;4365990;32;34918;-94
2021/09/04 01:10:34;;;;;;;;;;;;;;;15.89;58.49;100006.84;4428407;32;35526;-93
2021/09/04 01:13:16;;;;;;;;;;;;;;;15.98;57.84;100005.81;4437641;32;32412;-93
2021/09/04 01:15:59;;;;;;;;;;;;;;;15.98;57.91;100005.81;4424458;32;34650;-93
2021/09/04 01:18:42;;;;;;;;;;;;;;;15.86;58.35;100005.34;4398972;32;34051;-94
2021/09/04 01:21:26;;;;;;;;;;;;;;;15.98;57.97;100000.44;4431020;32;33755;-94
2021/09/04 01:24:15;;;;;;;;;;;;;;;16.02;57.45;99997.25;4438873;32;33483;-92
2021/09/04 01:26:58;;;;;;;;;;;;;;;16.01;57.51;99992.03;4398671;32;33520;-93
2021/09/04 01:29:41;;;;;;;;;;;;;;;15.96;57.70;99995.25;4385760;32;34792;-94
2021/09/04 01:32:23;;;;;;;;;;;;;;;15.93;58.00;99994.75;4396247;32;35320;-94
2021/09/04 01:35:07;;;;;;;;;;;;;;;15.78;58.59;99996.50;4417828;32;32506;-93
2021/09/04 01:37:50;;;;;;;;;;;;;;;15.51;58.83;99996.88;4382678;32;33213;-93
2021/09/04 01:40:32;;;;;;;;;;;;;;;15.89;57.96;99990.75;4401751;32;34006;-95
2021/09/04 01:43:26;;;;;;;;;;;;;;;15.91;57.23;99994.94;4434295;32;20649;-92
2021/09/04 01:46:17;;;;;;;;;;;;;;;15.83;57.48;99988.75;4403224;32;33496;-95
2021/09/04 01:49:04;;;;;;;;;;;;;;;15.59;58.84;99986.16;4449676;32;33882;-94
2021/09/04 01:51:54;;;;;;;;;;;;;;;15.48;59.24;99989.19;4430491;32;35817;-96
2021/09/04 01:54:37;;;;;;;;;;;;;;;15.65;58.50;99978.25;4406716;32;33844;-96
2021/09/04 01:57:19;;;;;;;;;;;;;;;15.58;58.77;99977.25;4454245;32;32488;-94
2021/09/04 02:00:01;;;;;;;;;;;;;;;15.81;57.75;99974.66;4438312;32;33094;-94
2021/09/04 02:02:45;;;;;;;;;;;;;;;15.81;57.19;99966.62;4450271;32;34926;-94
2021/09/04 02:05:27;;;;;;;;;;;;;;;15.66;57.83;99971.03;4436707;32;34830;-94
2021/09/04 02:08:09;;;;;;;;;;;;;;;15.61;58.17;99968.88;4428840;32;35003;-95
2021/09/04 02:10:55;;;;;;;;;;;;;;;15.55;58.35;99961.53;4416168;32;33497;-95
2021/09/04 02:13:44;;;;;;;;;;;;;;;15.52;58.46;99971.75;4422362;32;35531;-93
2021/09/04 02:16:26;;;;;;;;;;;;;;;15.43;59.24;99972.78;4403740;32;33714;-94
2021/09/04 02:19:20;;;;;;;;;;;;;;;15.45;59.05;99968.91;4426102;32;20061;-93
2021/09/04 02:22:09;;;;;;;;;;;;;;;15.43;59.17;99976.31;4416035;32;35892;-94
2021/09/04 02:24:52;;;;;;;;;;;;;;;15.43;59.25;99968.25;4417454;32;34397;-95
2021/09/04 02:27:34;;;;;;;;;;;;;;;15.39;59.28;99972.28;4439063;32;33372;-95
2021/09/04 02:30:30;;;;;;;;;;;;;;;15.40;59.25;99962.41;4430170;32;19993;-95
2021/09/04 02:33:13;;;;;;;;;;;;;;;15.41;59.33;99962.19;4404977;32;33986;-95
2021/09/04 02:35:57;;;;;;;;;;;;;;;15.40;59.38;99965.06;4406051;32;35158;-94
2021/09/04 02:38:39;;;;;;;;;;;;;;;15.37;59.42;99965.41;4400051;32;34187;-95
2021/09/04 02:41:21;;;;;;;;;;;;;;;15.42;58.87;99958.50;4420369;32;31939;-92
2021/09/04 02:44:03;;;;;;;;;;;;;;;15.35;59.04;99965.59;4411239;32;33968;-93
2021/09/04 02:46:45;;;;;;;;;;;;;;;15.17;59.74;99959.56;4428529;32;35388;-95
2021/09/04 02:49:29;;;;;;;;;;;;;;;14.87;60.88;99954.03;4426782;32;33949;-93
2021/09/04 02:52:16;;;;;;;;;;;;;;;15.14;59.82;99954.50;4469245;32;32425;-95
2021/09/04 02:55:02;;;;;;;;;;;;;;;15.28;58.99;99956.50;4410499;32;33204;-95
2021/09/04 02:57:48;;;;;;;;;;;;;;;15.28;59.12;99955.66;4424464;32;36443;-95
2021/09/04 03:00:30;;;;;;;;;;;;;;;15.30;58.89;99959.88;4402793;32;34637;-93
2021/09/04 03:03:19;;;;;;;;;;;;;;;15.08;59.89;99949.00;4410423;32;33698;-93
2021/09/04 03:06:14;;;;;;;;;;;;;;;15.24;59.45;99955.19;4438334;32;20626;-93
2021/09/04 03:08:56;;;;;;;;;;;;;;;15.22;59.36;99945.63;4433354;32;36851;-94
2021/09/04 03:11:43;;;;;;;;;;;;;;;15.09;59.99;99950.66;4432328;32;33443;-93
2021/09/04 03:14:32;;;;;;;;;;;;;;;14.88;61.03;99945.84;4451518;32;34874;-93
2021/09/04 03:17:15;;;;;;;;;;;;;;;14.90;60.87;99943.81;4416384;32;33172;-93
2021/09/04 03:19:58;;;;;;;;;;;;;;;15.29;59.57;99936.75;4392003;32;36223;-95
2021/09/04 03:22:40;;;;;;;;;;;;;;;15.37;58.72;99936.75;4400835;32;35079;-93
2021/09/04 03:25:23;;;;;;;;;;;;;;;15.31;59.14;99931.25;4425693;32;33801;-95
2021/09/04 03:28:21;;;;;;;;;;;;;;;15.31;58.70;99929.38;4430980;32;20069;-96
2021/09/04 03:31:07;;;;;;;;;;;;;;;15.26;58.43;99929.06;4375370;32;34168;-95
2021/09/04 03:33:49;;;;;;;;;;;;;;;15.19;58.02;99936.09;4396622;32;34937;-96
2021/09/04 03:36:33;;;;;;;;;;;;;;;15.17;58.41;99930.06;4416274;32;33667;-94
2021/09/04 03:39:16;;;;;;;;;;;;;;;15.14;58.70;99934.94;4428442;32;34687;-95
2021/09/04 03:42:15;;;;;;;;;;;;;;;15.12;58.91;99934.28;4432716;32;19985;-94
2021/09/04 03:44:58;;;;;;;;;;;;;;;15.11;59.00;99936.09;4427199;32;33855;-95
2021/09/04 03:47:41;;;;;;;;;;;;;;;15.07;59.53;99936.59;4427897;32;32815;-95
2021/09/04 03:50:23;;;;;;;;;;;;;;;15.15;59.37;99934.78;4420453;32;32884;-94
2021/09/04 03:53:06;;;;;;;;;;;;;;;14.93;60.18;99930.09;4422476;32;35104;-94
2021/09/04 03:55:48;;;;;;;;;;;;;;;15.03;59.31;99935.28;4385525;32;35050;-94
2021/09/04 03:58:30;;;;;;;;;;;;;;;15.06;59.19;99943.81;4390745;32;33632;-96
2021/09/04 04:01:14;;;;;;;;;;;;;;;15.02;59.16;99937.09;4406470;32;32928;-93
2021/09/04 04:03:57;;;;;;;;;;;;;;;14.87;60.13;99940.66;4398159;32;35912;-95
2021/09/04 04:06:40;;;;;;;;;;;;;;;15.02;59.27;99942.47;4400318;32;34251;-93
2021/09/04 04:09:22;;;;;;;;;;;;;;;14.84;59.65;99938.31;4418399;32;33735;-95
2021/09/04 04:12:04;;;;;;;;;;;;;;;14.77;60.10;99938.13;4412559;32;32964;-95
2021/09/04 04:14:48;;;;;;;;;;;;;;;14.72;60.43;99945.84;4403126;32;35725;-95
2021/09/04 04:17:30;;;;;;;;;;;;;;;14.63;60.72;99940.63;4409155;32;33405;-94
2021/09/04 04:20:20;;;;;;;;;;;;;;;14.60;61.12;99938.28;4396658;32;34455;-95
2021/09/04 04:23:02;;;;;;;;;;;;;;;14.75;60.72;99942.00;4393639;32;34115;-95
2021/09/04 04:25:46;;;;;;;;;;;;;;;14.68;60.93;99947.19;4387363;32;34814;-95
2021/09/04 04:28:30;;;;;;;;;;;;;;;14.69;60.86;99940.81;4444272;32;34393;-95
2021/09/04 04:31:12;;;;;;;;;;;;;;;14.71;60.93;99940.63;4431168;32;33128;-94
2021/09/04 04:33:54;;;;;;;;;;;;;;;14.56;61.54;99940.47;4419518;32;34118;-95
2021/09/04 04:36:39;;;;;;;;;;;;;;;14.64;61.49;99945.81;4435010;32;36318;-95
2021/09/04 04:39:22;;;;;;;;;;;;;;;14.85;60.74;99940.81;4426830;32;33952;-94
2021/09/04 04:42:04;;;;;;;;;;;;;;;14.63;60.92;99948.66;4433125;32;32951;-95
2021/09/04 04:44:47;;;;;;;;;;;;;;;14.62;61.75;99946.97;4424683;32;33455;-94
2021/09/04 04:47:31;;;;;;;;;;;;;;;14.75;61.26;99953.53;4402913;32;34840;-95
2021/09/04 04:50:27;;;;;;;;;;;;;;;14.98;60.20;99957.22;4429222;32;19981;-94
2021/09/04 04:53:11;;;;;;;;;;;;;;;14.82;60.89;99956.37;4407317;32;33230;-95
2021/09/04 04:55:54;;;;;;;;;;;;;;;14.63;62.32;99967.41;4377848;32;33835;-95
2021/09/04 04:58:36;;;;;;;;;;;;;;;14.19;62.93;99966.00;4400596;32;34321;-96
2021/09/04 05:01:31;;;;;;;;;;;;;;;14.37;62.80;99957.81;4405414;32;20042;-94
2021/09/04 05:04:14;;;;;;;;;;;;;;;14.56;62.49;99961.88;4441990;32;33460;-95
2021/09/04 05:13:08;;;;;;;;;;;;;;;15.24;60.71;99960.56;4418398;32;20007;-95
2021/09/04 05:15:57;;;;;;;;;;;;;;;15.00;61.20;99957.88;4422713;32;34217;-95
2021/09/04 05:18:49;;;;;;;;;;;;;;;15.13;60.97;99965.41;4417846;32;35366;-96
2021/09/04 05:21:34;;;;;;;;;;;;;;;15.54;60.09;99959.00;4412795;32;34143;-96
2021/09/04 05:24:16;;;;;;;;;;;;;;;15.84;59.26;99966.25;4420824;32;34405;-95
2021/09/04 05:26:59;;;;;;;;;;;;;;;16.06;58.87;99968.22;4404472;32;34218;-95
2021/09/04 05:29:43;;;;;;;;;;;;;;;16.22;58.44;99966.28;4388881;32;33993;-95
2021/09/04 05:32:31;;;;;;;;;;;;;;;16.34;58.62;99970.22;4414156;32;34351;-95
2021/09/04 05:35:14;;;;;;;;;;;;;;;16.43;58.49;99971.06;4434246;32;34409;-95
2021/09/04 05:37:58;;;;;;;;;;;;;;;16.57;58.45;99979.19;4443776;32;33052;-96
2021/09/04 05:40:41;;;;;;;;;;;;;;;16.33;58.52;99976.59;4460878;32;34534;-93
2021/09/04 05:43:30;;;;;;;;;;;;;;;16.07;59.21;99984.13;4436469;32;36920;-94
2021/09/04 05:46:13;;;;;;;;;;;;;;;16.24;59.47;99982.22;4435584;32;34339;-94
2021/09/04 05:48:56;;;;;;;;;;;;;;;16.18;59.67;99982.91;4408499;32;32419;-95
2021/09/04 05:51:38;;;;;;;;;;;;;;;16.56;58.89;99982.91;4415779;32;32882;-95
2021/09/04 05:54:20;;;;;;;;;;;;;;;16.67;59.08;99981.62;4407302;32;34827;-95
2021/09/04 05:57:02;;;;;;;;;;;;;;;16.77;58.77;99987.59;4422321;32;34625;-96
2021/09/04 05:59:47;;;;;;;;;;;;;;;17.15;58.21;99986.63;4417247;32;33233;-95
2021/09/04 06:02:30;;;;;;;;;;;;;;;17.26;57.54;99984.34;4391770;32;33646;-96
2021/09/04 06:05:14;;;;;;;;;;;;;;;17.41;57.29;99985.25;4385908;32;34020;-95
2021/09/04 06:08:08;;;;;;;;;;;;;;;17.57;57.33;99990.47;4438268;32;19958;-96
2021/09/04 06:10:51;;;;;;;;;;;;;;;17.87;55.70;99986.78;4403982;32;33553;-95
2021/09/04 06:13:34;;;;;;;;;;;;;;;18.07;55.67;99987.88;4385858;32;33089;-96
2021/09/04 06:16:20;;;;;;;;;;;;;;;18.27;55.38;99987.13;4430811;32;35393;-96
2021/09/04 06:19:02;;;;;;;;;;;;;;;18.52;54.61;99979.56;4420317;32;33626;-95
2021/09/04 06:21:45;;;;;;;;;;;;;;;18.36;54.60;99980.63;4391993;32;32374;-95
2021/09/04 06:24:27;;;;;;;;;;;;;;;18.38;54.53;99970.50;4413764;32;33236;-95
2021/09/04 06:27:11;;;;;;;;;;;;;;;18.37;54.05;99967.97;4432187;32;35246;-96
2021/09/04 06:29:54;;;;;;;;;;;;;;;18.64;54.56;99964.56;4410008;32;33554;-95
2021/09/04 06:32:36;;;;;;;;;;;;;;;18.53;55.16;99973.16;4380472;32;32705;-95
2021/09/04 06:35:20;;;;;;;;;;;;;;;19.08;54.23;99979.50;4403149;32;33558;-95
2021/09/04 06:38:03;;;;;;;;;;;;;;;19.39;52.87;99973.78;4404809;32;34359;-95
2021/09/04 06:40:45;;;;;;;;;;;;;;;19.59;53.80;99981.00;4420114;32;34614;-96
2021/09/04 06:43:29;;;;;;;;;;;;;;;19.40;52.68;99983.53;4405450;32;34441;-96
2021/09/04 06:46:12;;;;;;;;;;;;;;;19.52;52.31;99984.69;4408477;32;33065;-96
2021/09/04 06:48:55;;;;;;;;;;;;;;;20.01;51.85;99980.00;4410507;32;34618;-94
2021/09/04 06:51:41;;;;;;;;;;;;;;;19.43;53.84;99989.38;4406123;32;33488;-95
2021/09/04 06:54:27;;;;;;;;;;;;;;;19.50;52.15;99986.72;4405652;32;32452;-95
2021/09/04 06:57:11;;;;;;;;;;;;;;;19.33;52.72;99982.66;4412915;32;33083;-96
2021/09/04 06:59:53;;;;;;;;;;;;;;;19.27;53.06;99983.44;4414495;32;34496;-95
2021/09/04 07:02:35;;;;;;;;;;;;;;;19.56;52.02;99988.66;4390912;32;34250;-95
2021/09/04 07:05:22;;;;;;;;;;;;;;;19.78;52.51;99987.53;4395393;32;32859;-94
2021/09/04 07:08:04;;;;;;;;;;;;;;;20.32;51.14;99985.78;4412964;32;33868;-95
2021/09/04 07:10:53;;;;;;;;;;;;;;;20.32;49.88;99986.63;4417379;32;35450;-95
2021/09/04 07:13:39;;;;;;;;;;;;;;;21.08;50.28;99978.13;4410036;32;34600;-96
2021/09/04 07:16:28;;;;;;;;;;;;;;;21.16;49.10;99976.03;4389942;32;34308;-94
2021/09/04 07:19:11;;;;;;;;;;;;;;;20.71;49.00;99986.75;4417754;32;34107;-95
2021/09/04 07:21:53;;;;;;;;;;;;;;;21.36;48.25;99984.97;4384536;32;36055;-96
2021/09/04 07:24:35;;;;;;;;;;;;;;;21.12;49.09;99991.03;4396485;32;33427;-95
2021/09/04 07:27:17;;;;;;;;;;;;;;;21.39;48.68;99991.84;4409318;32;32064;-95
2021/09/04 07:30:01;;;;;;;;;;;;;;;22.01;47.19;99989.53;4380118;32;28801;-95
2021/09/04 07:32:49;;;;;;;;;;;;;;;21.65;47.25;99989.97;4411595;32;35098;-95
2021/09/04 07:35:32;;;;;;;;;;;;;;;21.68;48.75;99984.16;4416306;32;35232;-95
2021/09/04 07:38:14;;;;;;;;;;;;;;;21.55;47.31;99991.44;4407410;32;32385;-96
2021/09/04 07:40:59;;;;;;;;;;;;;;;22.61;45.36;99979.09;4416410;32;34404;-95
2021/09/04 07:43:42;;;;;;;;;;;;;;;22.52;45.45;99984.97;4428877;32;36368;-95
2021/09/04 07:46:29;;;;;;;;;;;;;;;22.33;44.87;99993.97;4419760;32;34716;-96
2021/09/04 07:49:11;;;;;;;;;;;;;;;22.75;44.10;99996.13;4416202;32;33629;-95
2021/09/04 07:51:55;;;;;;;;;;;;;;;23.30;43.28;100000.78;4414642;32;34479;-94
2021/09/04 07:54:39;;;;;;;;;;;;;;;23.18;42.80;99999.81;4431812;32;35371;-95
2021/09/04 07:57:21;;;;;;;;;;;;;;;22.93;42.74;100001.66;4432124;32;34669;-96
2021/09/04 08:00:06;;;;;;;;;;;;;;;23.07;42.45;99998.63;4428651;32;34002;-95
2021/09/04 08:02:54;;;;;;;;;;;;;;;23.07;43.62;99998.63;4434620;32;33985;-95
2021/09/04 08:05:39;;;;;;;;;;;;;;;23.08;44.59;99996.72;4429969;32;34253;-95
2021/09/04 08:08:25;;;;;;;;;;;;;;;23.15;42.98;99986.69;4416448;32;34907;-95
2021/09/04 08:11:13;;;;;;;;;;;;;;;23.58;42.12;99993.84;4433418;32;33630;-95
2021/09/04 08:13:57;;;;;;;;;;;;;;;24.01;41.76;99990.09;4425123;32;36692;-96
2021/09/04 08:16:41;;;;;;;;;;;;;;;23.65;40.80;99989.19;4413988;32;38294;-95
2021/09/04 08:19:27;;;;;;;;;;;;;;;23.58;39.58;99990.31;4435858;32;33732;-95
2021/09/04 08:22:10;;;;;;;;;;;;;;;23.54;41.79;99991.81;4408518;32;34076;-95
2021/09/04 08:24:57;;;;;;;;;;;;;;;23.92;39.75;99986.00;4440623;32;34065;-95
2021/09/04 08:28:06;;;;;;;;;;;;;;;23.68;38.55;99996.88;4424285;32;33896;-96
2021/09/04 08:30:54;;;;;;;;;;;;;;;23.54;39.38;99994.53;4410735;32;33449;-96
2021/09/04 08:33:36;;;;;;;;;;;;;;;23.96;37.73;99991.84;4399595;32;33064;-96
2021/09/04 08:36:18;;;;;;;;;;;;;;;24.88;38.28;99986.94;4434413;32;34087;-96
2021/09/04 08:39:04;;;;;;;;;;;;;;;25.49;37.63;99979.31;4431834;32;36345;-96
2021/09/04 08:41:48;;;;;;;;;;;;;;;25.29;34.93;99971.44;4415565;32;36034;-96
2021/09/04 08:47:37;;;;;;;;;;;;;;;25.49;34.61;99966.50;4403627;32;32661;-95
2021/09/04 08:50:23;;;;;;;;;;;;;;;25.49;33.99;99971.13;4383265;32;36403;-96
2021/09/04 08:53:08;;;;;;;;;;;;;;;24.89;34.07;99970.37;4417642;32;36249;-95
2021/09/04 08:55:51;;;;;;;;;;;;;;;25.63;35.27;99964.38;4388087;32;33523;-95
2021/09/04 08:58:35;;;;;;;;;;;;;;;26.03;33.57;99957.97;4367798;32;32912;-96
2021/09/04 09:07:58;;;;;;;;;;;;;;;25.96;33.46;99945.56;1428973;27;20283;-95
2021/09/04 09:10:46;;;;;;;;;;;;;;;26.07;34.63;99941.97;4356761;32;33328;-95
2021/09/04 09:13:51;;;;;;;;;;;;;;;26.46;33.32;99943.88;1027231;27;21808;-90
2021/09/04 09:16:36;;;;;;;;;;;;;;;26.22;32.12;99948.56;4308297;33;32541;-96
2021/09/04 09:19:48;;;;;;;;;;;;;;;26.57;30.84;99940.28;4309850;33;34028;-95
2021/09/04 09:25:39;;;;;;;;;;;;;;;26.32;30.53;99942.50;4288643;33;33325;-95
2021/09/04 09:28:27;;;;;;;;;;;;;;;26.29;32.38;99942.97;4328461;33;33836;-95
2021/09/04 09:31:21;;;;;;;;;;;;;;;26.36;31.70;99939.06;4298855;33;20010;-95
2021/09/04 09:34:11;;;;;;;;;;;;;;;26.33;30.25;99944.16;4314749;33;34742;-96
2021/09/04 09:36:55;;;;;;;;;;;;;;;25.41;31.54;99941.50;4342806;32;34550;-93
2021/09/04 09:39:41;;;;;;;;;;;;;;;26.31;30.74;99938.13;4338195;32;35539;-95
2021/09/04 09:42:54;;;;;;;;;;;;;;;26.80;31.49;99940.19;4342203;32;20003;-94
2021/09/04 09:45:44;;;;;;;;;;;;;;;26.86;31.36;99933.75;4401096;32;34454;-95
2021/09/04 09:48:31;;;;;;;;;;;;;;;26.93;29.60;99940.72;4415885;32;34562;-95
2021/09/04 09:54:18;;;;;;;;;;;;;;;26.85;31.40;99940.28;4378708;32;34183;-94
2021/09/04 09:57:02;;;;;;;;;;;;;;;27.28;31.62;99941.38;4362732;32;33745;-94
2021/09/04 10:00:16;;;;;;;;;;;;;;;27.24;31.74;99942.94;4361137;32;35304;-92
2021/09/04 10:09:06;;;;;;;;;;;;;;;27.50;31.30;99961.41;4387670;32;32442;-94
2021/09/04 10:11:54;;;;;;;;;;;;;;;27.15;33.09;99960.00;4391046;32;34997;-94
2021/09/04 10:14:51;;;;;;;;;;;;;;;27.47;31.25;99948.25;4391673;32;20006;-94
2021/09/04 10:17:38;;;;;;;;;;;;;;;27.29;31.12;99957.50;4393882;32;32789;-94
2021/09/04 10:20:28;;;;;;;;;;;;;;;27.47;30.05;99962.72;4406848;32;34215;-96
2021/09/04 10:29:40;;;;;;;;;;;;;;;27.65;31.31;99947.97;4407040;32;34160;-95
2021/09/04 10:32:55;;;;;;;;;;;;;;;27.10;30.64;99949.78;4401657;32;35783;-95
2021/09/04 10:35:51;;;;;;;;;;;;;;;27.45;30.50;99945.75;4386088;32;35403;-95
2021/09/04 10:39:06;;;;;;;;;;;;;;;27.35;32.04;99952.94;1623442;27;20253;-89
2021/09/04 10:42:17;;;;;;;;;;;;;;;26.79;30.13;99944.00;4358639;32;30649;-96
2021/09/04 10:48:42;;;;;;;;;;;;;;;26.74;29.27;99942.00;4341742;32;33856;-92
2021/09/04 10:51:49;;;;;;;;;;;;;;;26.89;28.96;99947.72;4331559;32;34597;-94
2021/09/04 10:54:39;;;;;;;;;;;;;;;26.71;29.07;99952.59;4315487;33;32655;-94
2021/09/04 10:57:49;;;;;;;;;;;;;;;27.79;30.30;99958.34;4387322;32;20590;-94
2021/09/04 11:00:50;;;;;;;;;;;;;;;27.72;28.41;99956.81;4369815;32;34508;-93
2021/09/04 11:03:40;;;;;;;;;;;;;;;27.90;30.99;99949.19;4356092;32;34762;-94
2021/09/04 11:06:18;;;;;;;;;;;;;;;28.63;30.11;99940.56;4368327;32;32423;-93
2021/09/04 11:09:18;;;;;;;;;;;;;;;28.96;29.23;99940.41;4390256;32;34580;-94
2021/09/04 11:12:12;;;;;;;;;;;;;;;28.66;27.92;99943.62;4379771;32;34249;-95
2021/09/04 11:15:00;;;;;;;;;;;;;;;29.05;30.55;99939.66;4365729;32;33893;-94
2021/09/04 11:17:53;;;;;;;;;;;;;;;29.14;30.36;99934.53;4417503;32;32352;-93
2021/09/04 11:20:52;;;;;;;;;;;;;;;29.50;28.20;99926.34;4419834;32;33519;-93
2021/09/04 11:23:42;;;;;;;;;;;;;;;29.37;28.50;99937.75;4417704;32;34638;-93
2021/09/04 11:26:47;;;;;;;;;;;;;;;28.97;26.85;99934.63;4431233;32;34840;-94
2021/09/04 11:29:52;;;;;;;;;;;;;;;29.20;27.80;99934.31;4414996;32;19958;-94
2021/09/04 11:33:13;;;;;;;;;;;;;;;28.77;27.83;99933.59;4391906;32;33492;-95
2021/09/04 11:36:02;;;;;;;;;;;;;;;28.56;28.51;99935.28;4396230;32;33997;-93
2021/09/04 11:38:56;;;;;;;;;;;;;;;28.81;28.92;99934.72;4385030;32;33317;-94
2021/09/04 11:41:56;;;;;;;;;;;;;;;30.41;25.65;99920.28;4416268;32;33702;-95
2021/09/04 11:45:04;;;;;;;;;;;;;;;31.02;25.08;99913.84;4404834;32;20049;-93
2021/09/04 11:47:56;;;;;;;;;;;;;;;31.78;24.23;99910.00;4392062;32;34510;-93
2021/09/04 11:51:06;;;;;;;;;;;;;;;32.36;22.65;99903.78;4388867;32;33275;-92
2021/09/04 11:54:01;;;;;;;;;;;;;;;31.41;24.64;99901.22;4379524;32;32529;-92
2021/09/04 11:56:49;;;;;;;;;;;;;;;31.22;24.71;99900.13;4390503;32;34613;-94
2021/09/04 12:00:05;;;;;;;;;;;;;;;31.67;25.66;99898.16;4419404;32;35795;-94
2021/09/04 12:02:50;;;;;;;;;;;;;;;31.32;23.16;99895.47;4390623;32;34795;-94
2021/09/04 12:05:47;;;;;;;;;;;;;;;31.73;24.66;99899.00;4384812;32;34399;-94
2021/09/04 12:08:40;;;;;;;;;;;;;;;32.44;23.74;99886.66;4400784;32;34476;-94
2021/09/04 12:11:40;;;;;;;;;;;;;;;30.59;25.67;99895.09;4418236;32;19968;-92
2021/09/04 12:14:41;;;;;;;;;;;;;;;30.92;26.13;99891.84;4388107;32;35405;-94
2021/09/04 12:17:31;;;;;;;;;;;;;;;30.55;26.22;99886.56;4402570;32;33597;-94
2021/09/04 12:20:43;;;;;;;;;;;;;;;30.45;27.27;99891.19;4372289;32;19978;-94
2021/09/04 12:29:46;;;;;;;;;;;;;;;29.56;27.58;99883.34;4339698;33;32339;-96
2021/09/04 12:32:32;;;;;;;;;;;;;;;29.86;27.94;99887.09;4372024;32;34301;-94
2021/09/04 12:35:20;;;;;;;;;;;;;;;29.91;27.85;99875.31;4340214;32;34119;-94
2021/09/04 12:38:03;;;;;;;;;;;;;;;30.36;30.57;99884.56;4379877;32;35507;-95
2021/09/04 12:41:13;;;;;;;;;;;;;;;30.12;28.02;99879.81;4383619;32;19973;-96
2021/09/04 12:47:11;;;;;;;;;;;;;;;30.13;28.96;99874.09;4389095;32;20069;-95
2021/09/04 12:50:02;;;;;;;;;;;;;;;30.14;28.97;99880.38;4408187;32;35245;-95
2021/09/04 12:53:04;;;;;;;;;;;;;;;30.04;29.03;99869.34;4414931;32;19990;-95
2021/09/04 12:55:51;;;;;;;;;;;;;;;29.61;28.20;99875.97;4393423;32;35421;-95
2021/09/04 12:58:47;;;;;;;;;;;;;;;29.35;28.19;99878.78;4391525;32;34212;-94
2021/09/04 13:05:26;;;;;;;;;;;;;;;29.13;29.13;99869.84;1719127;27;20039;-93
2021/09/04 13:08:13;;;;;;;;;;;;;;;27.86;29.26;99870.66;4355191;32;31786;-95
2021/09/04 13:11:05;;;;;;;;;;;;;;;27.46;29.61;99867.31;4348806;32;34208;-95
2021/09/04 13:13:48;;;;;;;;;;;;;;;28.07;28.68;99862.44;4311116;33;33888;-96
2021/09/04 13:16:31;;;;;;;;;;;;;;;29.10;28.46;99862.16;4328508;33;32470;-95
2021/09/04 13:19:17;;;;;;;;;;;;;;;29.80;29.83;99849.75;4356769;32;33305;-94
2021/09/04 13:21:59;;;;;;;;;;;;;;;29.73;26.31;99849.16;4349443;32;34288;-94
2021/09/04 13:24:41;;;;;;;;;;;;;;;29.57;26.50;99847.44;4370998;32;33256;-95
2021/09/04 13:27:28;;;;;;;;;;;;;;;29.72;26.02;99855.75;4390038;32;32988;-92
2021/09/04 13:30:38;;;;;;;;;;;;;;;28.90;26.16;99846.34;4401867;32;32923;-96
2021/09/04 13:33:25;;;;;;;;;;;;;;;29.67;27.07;99847.50;4388693;32;35551;-96
2021/09/04 13:36:07;;;;;;;;;;;;;;;30.16;26.78;99857.06;4378384;32;33826;-95
2021/09/04 13:38:51;;;;;;;;;;;;;;;30.58;27.57;99860.47;4355463;32;33225;-95
2021/09/04 13:41:34;;;;;;;;;;;;;;;30.39;26.63;99848.34;4396626;32;33476;-95
2021/09/04 13:44:18;;;;;;;;;;;;;;;29.49;27.32;99844.34;4392971;32;35891;-95
2021/09/04 13:47:00;;;;;;;;;;;;;;;29.87;27.62;99844.84;4374005;32;34665;-95
2021/09/04 13:49:49;;;;;;;;;;;;;;;30.29;28.29;99839.28;4392493;32;33623;-94
2021/09/04 13:52:32;;;;;;;;;;;;;;;30.27;29.15;99836.78;4402950;32;33439;-95
2021/09/04 13:55:14;;;;;;;;;;;;;;;30.06;28.72;99834.25;4414829;32;34083;-94
2021/09/04 13:58:00;;;;;;;;;;;;;;;29.51;27.96;99834.78;4393095;32;34676;-94
2021/09/04 14:00:51;;;;;;;;;;;;;;;29.14;28.57;99833.16;4430655;32;34250;-94
2021/09/04 14:03:39;;;;;;;;;;;;;;;28.25;28.80;99828.44;4391071;32;35055;-94
2021/09/04 14:06:21;;;;;;;;;;;;;;;27.59;29.35;99834.16;4422388;32;34135;-95
2021/09/04 14:09:04;;;;;;;;;;;;;;;27.81;29.19;99826.81;4402950;32;36286;-96
2021/09/04 14:11:48;;;;;;;;;;;;;;;27.73;30.00;99832.69;4426472;32;33918;-96
2021/09/04 14:14:34;;;;;;;;;;;;;;;27.46;28.96;99823.56;4431206;32;33152;-95
2021/09/04 14:17:28;;;;;;;;;;;;;;;26.97;30.20;99813.53;4400559;32;35312;-95
2021/09/04 14:20:10;;;;;;;;;;;;;;;28.02;29.25;99812.28;4354773;32;33431;-94
2021/09/04 14:22:52;;;;;;;;;;;;;;;27.95;28.86;99812.50;4399359;32;32804;-96
2021/09/04 14:25:36;;;;;;;;;;;;;;;27.91;29.10;99816.84;4366506;32;33824;-95
2021/09/04 14:28:18;;;;;;;;;;;;;;;27.78;28.59;99814.47;4394203;32;35975;-95
2021/09/04 14:31:00;;;;;;;;;;;;;;;27.94;28.89;99823.72;4391344;32;34227;-94
2021/09/04 14:33:43;;;;;;;;;;;;;;;28.40;29.22;99814.97;4404009;32;33814;-94
2021/09/04 14:36:36;;;;;;;;;;;;;;;27.86;29.00;99808.56;4383521;32;32934;-94
2021/09/04 14:39:21;;;;;;;;;;;;;;;28.42;28.00;99805.38;4402462;32;35785;-96
2021/09/04 14:42:03;;;;;;;;;;;;;;;29.43;26.75;99805.09;4390821;32;35080;-94
2021/09/04 14:44:54;;;;;;;;;;;;;;;29.05;27.16;99804.59;4373836;32;33836;-95
2021/09/04 14:47:38;;;;;;;;;;;;;;;28.71;26.86;99806.75;4424514;32;34388;-94
2021/09/04 14:50:24;;;;;;;;;;;;;;;29.93;25.64;99793.56;4398253;32;34503;-92
2021/09/04 14:53:34;;;;;;;;;;;;;;;28.73;26.60;99796.38;4397001;32;34673;-94
2021/09/04 14:56:18;;;;;;;;;;;;;;;30.30;26.48;99786.84;4400793;32;32261;-94
2021/09/04 14:59:00;;;;;;;;;;;;;;;30.35;24.43;99791.53;4381372;32;33061;-94
2021/09/04 15:01:43;;;;;;;;;;;;;;;30.48;25.17;99794.53;4375364;32;36187;-95
2021/09/04 15:04:26;;;;;;;;;;;;;;;30.93;24.39;99795.41;4417460;32;34244;-96
2021/09/04 15:07:11;;;;;;;;;;;;;;;31.65;25.23;99795.00;4432445;32;33727;-96
2021/09/04 15:09:57;;;;;;;;;;;;;;;32.24;24.73;99784.84;4402098;32;32899;-96
2021/09/04 15:18:57;;;;;;;;;;;;;;;31.72;22.40;99790.88;4425747;32;20023;-95
2021/09/04 15:21:46;;;;;;;;;;;;;;;30.39;22.92;99784.38;4413563;32;34701;-94
2021/09/04 15:24:41;;;;;;;;;;;;;;;31.15;22.30;99784.97;4390731;32;20000;-95
2021/09/04 15:27:27;;;;;;;;;;;;;;;31.74;22.18;99772.19;4365491;32;33210;-96